createdAt,value
2018-10-21T00:02:21.585Z,4.00
2018-10-21T00:05:02.531Z,4.73
2018-10-21T00:07:39.873Z,3.80
2018-10-21T00:10:16.789Z,4.23
2018-10-21T00:12:52.847Z,4.10
2018-10-21T00:15:29.473Z,3.87
2018-10-21T00:18:09.257Z,4.27
2018-10-21T00:20:44.850Z,3.83
2018-10-21T00:23:21.592Z,4.67
2018-10-21T00:25:57.097Z,4.50
2018-10-21T00:28:33.815Z,4.20
2018-10-21T00:31:10.221Z,4.80
2018-10-21T00:33:45.563Z,4.67
2018-10-21T00:36:22.121Z,3.70
2018-10-21T00:39:02.300Z,3.33
2018-10-21T00:41:44.133Z,3.47
2018-10-21T00:44:19.453Z,3.47
2018-10-21T00:46:56.660Z,3.10
2018-10-21T00:49:31.946Z,3.63
2018-10-21T00:52:07.934Z,3.40
2018-10-21T00:54:44.581Z,2.90
2018-10-21T00:57:20.431Z,3.30
2018-10-21T00:59:56.660Z,3.10
2018-10-21T01:02:43.916Z,3.03
2018-10-21T01:05:21.031Z,2.87
2018-10-21T01:07:56.335Z,2.80
2018-10-21T01:13:28.833Z,3.00
2018-10-21T01:16:06.991Z,2.60
2018-10-21T01:18:43.389Z,2.77
2018-10-21T01:21:20.297Z,2.73
2018-10-21T01:23:57.906Z,2.70
2018-10-21T01:26:34.762Z,3.63
2018-10-21T01:29:11.403Z,2.00
2018-10-21T01:31:47.052Z,2.63
2018-10-21T01:34:23.828Z,2.33
2018-10-21T01:37:00.442Z,2.10
2018-10-21T01:40:56.186Z,2.17
2018-10-21T01:43:38.908Z,1.93
2018-10-21T01:46:15.562Z,2.10
2018-10-21T01:49:07.852Z,2.13
2018-10-21T01:52:20.773Z,1.60
2018-10-21T01:58:34.597Z,1.97
2018-10-21T02:01:11.002Z,2.20
2018-10-21T02:03:47.944Z,2.30
2018-10-21T02:06:27.752Z,2.63
2018-10-21T02:09:04.296Z,2.50
2018-10-21T02:11:40.805Z,2.63
2018-10-21T02:14:16.694Z,2.07
2018-10-21T02:16:56.094Z,2.63
2018-10-21T02:19:33.792Z,2.70
2018-10-21T02:22:10.169Z,2.07
2018-10-21T02:24:50.257Z,2.20
2018-10-21T02:27:32.667Z,2.03
2018-10-21T02:30:11.342Z,2.70
2018-10-21T02:32:49.415Z,2.73
2018-10-21T02:35:24.975Z,2.50
2018-10-21T02:38:01.867Z,2.30
2018-10-21T02:41:46.240Z,2.30
2018-10-21T02:44:22.142Z,2.63
2018-10-21T02:46:58.786Z,2.60
2018-10-21T02:49:34.717Z,3.60
2018-10-21T02:52:11.769Z,2.90
2018-10-21T02:54:47.970Z,2.57
2018-10-21T02:57:24.800Z,2.90
2018-10-21T03:00:01.245Z,2.87
2018-10-21T03:02:43.187Z,2.73
2018-10-21T03:05:23.497Z,3.63
2018-10-21T03:08:00.037Z,3.30
2018-10-21T03:10:36.005Z,3.30
2018-10-21T03:13:11.775Z,3.70
2018-10-21T03:15:47.185Z,3.67
2018-10-21T03:18:24.399Z,3.50
2018-10-21T03:21:05.440Z,3.30
2018-10-21T03:23:41.825Z,2.67
2018-10-21T03:26:19.501Z,2.93
2018-10-21T03:28:55.313Z,3.63
2018-10-21T03:31:30.963Z,3.37
2018-10-21T03:34:17.773Z,2.40
2018-10-21T03:36:52.697Z,3.20
2018-10-21T03:39:33.376Z,3.20
2018-10-21T03:42:08.728Z,3.50
2018-10-21T03:44:44.170Z,2.40
2018-10-21T03:47:21.404Z,2.67
2018-10-21T03:49:59.611Z,2.87
2018-10-21T03:52:39.854Z,3.20
2018-10-21T03:55:20.094Z,3.20
2018-10-21T03:57:56.659Z,2.60
2018-10-21T04:00:32.419Z,2.73
2018-10-21T04:03:08.470Z,2.80
2018-10-21T04:05:47.674Z,2.60
2018-10-21T04:08:24.005Z,2.80
2018-10-21T04:11:00.352Z,2.90
2018-10-21T04:13:41.841Z,2.63
2018-10-21T04:16:17.660Z,2.70
2018-10-21T04:18:54.278Z,2.67
2018-10-21T04:21:34.246Z,3.00
2018-10-21T04:24:09.290Z,2.90
2018-10-21T04:26:45.647Z,3.27
2018-10-21T04:29:24.638Z,3.00
2018-10-21T04:32:05.523Z,2.57
2018-10-21T04:34:48.986Z,2.70
2018-10-21T04:39:44.117Z,3.13
2018-10-21T04:42:25.966Z,2.63
2018-10-21T04:45:02.325Z,2.50
2018-10-21T04:47:37.379Z,2.40
2018-10-21T04:50:13.030Z,2.80
2018-10-21T04:52:48.599Z,2.37
2018-10-21T04:55:28.376Z,3.23
2018-10-21T04:58:04.287Z,3.47
2018-10-21T05:00:39.807Z,2.70
2018-10-21T05:03:17.043Z,3.67
2018-10-21T05:06:01.578Z,3.17
2018-10-21T05:08:44.245Z,3.43
2018-10-21T05:11:19.682Z,3.53
2018-10-21T05:16:37.558Z,3.10
2018-10-21T05:19:12.821Z,3.77
2018-10-21T05:21:48.086Z,3.37
2018-10-21T05:24:27.712Z,4.60
2018-10-21T05:27:09.421Z,3.90
2018-10-21T05:29:45.473Z,4.20
2018-10-21T05:32:21.871Z,5.13
2018-10-21T05:34:58.275Z,4.13
2018-10-21T05:37:35.771Z,4.60
2018-10-21T05:40:18.975Z,4.87
2018-10-21T05:42:56.385Z,4.33
2018-10-21T05:45:32.264Z,4.57
2018-10-21T05:48:09.051Z,5.07
2018-10-21T05:50:44.788Z,5.60
2018-10-21T05:53:20.888Z,5.60
2018-10-21T05:56:02.546Z,5.20
2018-10-21T05:58:43.057Z,6.40
2018-10-21T06:01:19.147Z,5.17
2018-10-21T06:03:55.652Z,6.27
2018-10-21T06:06:32.869Z,6.17
2018-10-21T06:09:23.017Z,5.97
2018-10-21T06:12:09.365Z,5.70
2018-10-21T06:17:28.455Z,6.63
2018-10-21T06:20:16.595Z,6.70
2018-10-21T06:22:54.264Z,5.80
2018-10-21T06:25:30.953Z,6.33
2018-10-21T06:28:06.913Z,6.30
2018-10-21T06:30:42.969Z,6.90
2018-10-21T06:33:25.946Z,9.00
2018-10-21T06:36:01.978Z,6.97
2018-10-21T06:38:43.587Z,6.97
2018-10-21T06:41:22.018Z,7.57
2018-10-21T06:43:58.289Z,6.20
2018-10-21T06:46:34.234Z,6.43
2018-10-21T06:49:11.339Z,6.20
2018-10-21T06:51:49.720Z,6.30
2018-10-21T06:54:26.784Z,8.43
2018-10-21T06:57:04.349Z,7.23
2018-10-21T06:59:44.081Z,7.87
2018-10-21T07:02:20.529Z,7.80
2018-10-21T07:04:55.539Z,7.33
2018-10-21T07:07:32.394Z,7.57
2018-10-21T07:10:07.956Z,7.80
2018-10-21T07:12:44.917Z,7.60
2018-10-21T07:15:20.661Z,8.40
2018-10-21T07:17:55.897Z,8.77
2018-10-21T07:20:32.836Z,8.83
2018-10-21T07:23:13.831Z,8.10
2018-10-21T07:25:50.180Z,7.93
2018-10-21T07:28:26.343Z,8.10
2018-10-21T07:31:03.222Z,8.10
2018-10-21T07:33:40.315Z,8.50
2018-10-21T07:36:17.120Z,8.40
2018-10-21T07:38:52.767Z,8.50
2018-10-21T07:41:29.031Z,7.90
2018-10-21T07:44:11.223Z,7.43
2018-10-21T07:46:49.535Z,8.80
2018-10-21T07:49:25.001Z,9.50
2018-10-21T07:52:03.352Z,8.20
2018-10-21T07:54:42.774Z,8.73
2018-10-21T07:57:19.436Z,8.33
2018-10-21T07:59:55.101Z,9.73
2018-10-21T08:02:36.557Z,9.20
2018-10-21T08:05:22.790Z,8.70
2018-10-21T08:08:26.432Z,7.30
2018-10-21T08:11:03.011Z,8.87
2018-10-21T08:13:38.441Z,7.77
2018-10-21T08:16:19.322Z,8.10
2018-10-21T08:18:56.128Z,7.63
2018-10-21T08:21:35.867Z,7.43
2018-10-21T08:24:11.891Z,9.00
2018-10-21T08:26:47.849Z,8.40
2018-10-21T08:29:22.967Z,9.57
2018-10-21T08:31:59.316Z,8.90
2018-10-21T08:34:38.859Z,9.53
2018-10-21T08:37:15.465Z,8.77
2018-10-21T08:39:56.146Z,8.93
2018-10-21T08:42:40.176Z,8.87
2018-10-21T08:45:16.524Z,9.27
2018-10-21T08:47:51.639Z,8.37
2018-10-21T08:50:27.933Z,9.03
2018-10-21T08:53:10.685Z,9.40
2018-10-21T08:55:46.434Z,9.37
2018-10-21T08:58:22.704Z,9.37
2018-10-21T09:00:58.851Z,8.77
2018-10-21T09:03:38.593Z,10.17
2018-10-21T09:06:18.086Z,9.20
2018-10-21T09:08:53.053Z,8.50
2018-10-21T09:11:29.526Z,9.70
2018-10-21T09:14:05.838Z,9.10
2018-10-21T09:16:45.472Z,8.87
2018-10-21T09:19:20.995Z,9.40
2018-10-21T09:21:58.251Z,9.70
2018-10-21T09:24:35.743Z,9.03
2018-10-21T09:27:19.615Z,11.03
2018-10-21T09:29:55.747Z,9.20
2018-10-21T09:32:31.550Z,8.93
2018-10-21T09:35:09.523Z,9.47
2018-10-21T09:37:45.071Z,9.00
2018-10-21T09:40:28.360Z,9.97
2018-10-21T09:43:04.735Z,9.63
2018-10-21T09:45:41.265Z,15.13
2018-10-21T09:48:18.784Z,9.40
2018-10-21T09:50:55.560Z,9.20
2018-10-21T09:53:32.457Z,7.87
2018-10-21T09:56:08.196Z,8.77
2018-10-21T09:58:55.136Z,8.43
2018-10-21T10:01:41.264Z,7.93
2018-10-21T10:04:25.568Z,8.10
2018-10-21T10:07:02.332Z,8.20
2018-10-21T10:09:38.895Z,8.77
2018-10-21T10:12:20.729Z,8.67
2018-10-21T10:15:01.458Z,7.70
2018-10-21T10:17:37.052Z,6.87
2018-10-21T10:20:13.217Z,6.73
2018-10-21T10:22:48.724Z,6.00
2018-10-21T10:25:28.067Z,7.73
2018-10-21T10:28:04.199Z,7.53
2018-10-21T10:30:46.551Z,6.57
2018-10-21T10:33:22.504Z,6.77
2018-10-21T10:35:58.475Z,6.50
2018-10-21T10:38:34.725Z,5.60
2018-10-21T10:41:15.846Z,6.93
2018-10-21T10:43:51.610Z,5.67
2018-10-21T10:46:31.026Z,5.63
2018-10-21T10:49:13.082Z,5.23
2018-10-21T10:51:50.316Z,4.70
2018-10-21T10:54:26.106Z,4.93
2018-10-21T10:57:02.899Z,5.03
2018-10-21T10:59:38.190Z,4.57
2018-10-21T11:02:13.068Z,3.93
2018-10-21T11:04:51.161Z,4.60
2018-10-21T11:07:31.913Z,4.10
2018-10-21T11:10:09.734Z,3.97
2018-10-21T11:12:45.475Z,4.17
2018-10-21T11:15:27.424Z,4.40
2018-10-21T11:18:10.670Z,3.40
2018-10-21T11:20:52.138Z,3.23
2018-10-21T11:23:31.784Z,3.60
2018-10-21T11:26:12.544Z,4.07
2018-10-21T11:28:48.673Z,3.87
2018-10-21T11:31:25.239Z,3.33
2018-10-21T11:34:05.666Z,4.30
2018-10-21T11:36:42.335Z,4.07
2018-10-21T11:39:18.880Z,3.73
2018-10-21T11:41:54.916Z,4.00
2018-10-21T11:44:34.427Z,5.03
2018-10-21T11:47:10.793Z,5.43
2018-10-21T11:49:48.047Z,4.43
2018-10-21T11:52:26.418Z,4.40
2018-10-21T11:55:15.311Z,3.97
2018-10-21T11:57:51.674Z,3.97
2018-10-21T12:00:34.080Z,4.00
2018-10-21T12:03:13.875Z,3.10
2018-10-21T12:05:49.841Z,2.87
2018-10-21T12:08:32.324Z,4.30
2018-10-21T12:11:13.708Z,3.90
2018-10-21T12:13:51.129Z,3.70
2018-10-21T12:16:27.529Z,4.03
2018-10-21T12:19:02.700Z,4.10
2018-10-21T12:21:40.854Z,3.90
2018-10-21T12:24:16.356Z,3.70
2018-10-21T12:26:53.241Z,3.80
2018-10-21T12:29:29.112Z,4.23
2018-10-21T12:32:05.102Z,4.03
2018-10-21T12:34:44.492Z,4.40
2018-10-21T12:37:20.282Z,4.10
2018-10-21T12:39:56.007Z,4.20
2018-10-21T12:42:38.205Z,4.47
2018-10-21T12:45:14.919Z,4.03
2018-10-21T12:47:51.159Z,4.03
2018-10-21T12:50:27.581Z,4.27
2018-10-21T12:53:04.369Z,4.30
2018-10-21T12:55:45.468Z,4.20
2018-10-21T12:58:27.587Z,3.47
2018-10-21T13:01:09.270Z,4.07
2018-10-21T13:03:49.271Z,4.00
2018-10-21T13:06:27.361Z,3.40
2018-10-21T13:09:11.757Z,3.60
2018-10-21T13:11:47.805Z,3.73
2018-10-21T13:14:26.529Z,3.50
2018-10-21T13:17:07.747Z,4.10
2018-10-21T13:19:44.996Z,3.93
2018-10-21T13:22:21.342Z,3.53
2018-10-21T13:25:01.214Z,3.80
2018-10-21T13:27:42.748Z,3.30
2018-10-21T13:30:18.774Z,4.30
2018-10-21T13:32:55.801Z,3.13
2018-10-21T13:35:33.557Z,3.63
2018-10-21T13:38:13.819Z,3.53
2018-10-21T13:40:49.112Z,4.23
2018-10-21T13:43:26.405Z,3.73
2018-10-21T13:46:06.579Z,3.73
2018-10-21T13:48:50.066Z,4.10
2018-10-21T13:51:26.398Z,4.37
2018-10-21T13:54:02.306Z,4.30
2018-10-21T13:56:38.969Z,4.87
2018-10-21T13:59:16.704Z,4.87
2018-10-21T14:01:54.150Z,4.27
2018-10-21T14:04:34.161Z,5.27
2018-10-21T14:07:10.622Z,4.90
2018-10-21T14:09:47.730Z,5.33
2018-10-21T14:12:29.122Z,5.50
2018-10-21T14:15:07.157Z,5.60
2018-10-21T14:17:50.270Z,5.90
2018-10-21T14:20:26.685Z,6.50
2018-10-21T14:23:04.262Z,6.70
2018-10-21T14:25:39.746Z,6.27
2018-10-21T14:28:17.373Z,6.60
2018-10-21T14:30:52.612Z,6.60
2018-10-21T14:33:27.709Z,6.17
2018-10-21T14:36:03.956Z,6.60
2018-10-21T14:38:39.755Z,7.40
2018-10-21T14:41:16.663Z,7.33
2018-10-21T14:44:01.870Z,8.00
2018-10-21T14:46:38.509Z,8.60
2018-10-21T14:49:13.837Z,7.87
2018-10-21T14:51:50.006Z,8.77
2018-10-21T14:54:31.273Z,7.97
2018-10-21T14:57:08.005Z,8.20
2018-10-21T14:59:44.878Z,8.57
2018-10-21T15:02:20.955Z,8.17
2018-10-21T15:04:56.744Z,8.50
2018-10-21T15:07:33.809Z,8.77
2018-10-21T15:10:15.514Z,8.77
2018-10-21T15:12:50.900Z,8.37
2018-10-21T15:15:26.532Z,8.23
2018-10-21T15:18:02.173Z,9.60
2018-10-21T15:20:39.098Z,9.20
2018-10-21T15:23:17.174Z,9.07
2018-10-21T15:25:57.659Z,10.10
2018-10-21T15:28:35.045Z,10.37
2018-10-21T15:31:23.883Z,10.03
2018-10-21T15:34:05.316Z,9.67
2018-10-21T15:36:42.123Z,9.70
2018-10-21T15:39:19.401Z,9.80
2018-10-21T15:41:55.693Z,10.30
2018-10-21T15:44:41.084Z,10.20
2018-10-21T15:47:17.600Z,11.13
2018-10-21T15:49:58.050Z,10.40
2018-10-21T15:52:33.651Z,10.63
2018-10-21T15:55:14.880Z,11.00
2018-10-21T15:57:51.932Z,10.93
2018-10-21T16:00:31.223Z,11.90
2018-10-21T16:03:07.056Z,11.87
2018-10-21T16:05:44.738Z,12.27
2018-10-21T16:08:20.505Z,17.70
2018-10-21T16:10:57.599Z,19.40
2018-10-21T16:13:33.617Z,15.30
2018-10-21T16:16:13.839Z,14.30
2018-10-21T16:18:53.604Z,13.40
2018-10-21T16:21:34.131Z,12.50
2018-10-21T16:24:15.037Z,12.23
2018-10-21T16:26:57.398Z,13.73
2018-10-21T16:29:33.809Z,12.60
2018-10-21T16:32:11.370Z,13.73
2018-10-21T16:34:51.317Z,14.73
2018-10-21T16:37:27.871Z,13.70
2018-10-21T16:40:04.079Z,15.07
2018-10-21T16:42:40.324Z,13.57
2018-10-21T16:45:16.945Z,16.10
2018-10-21T16:47:53.223Z,13.97
2018-10-21T16:50:29.415Z,16.23
2018-10-21T16:53:11.562Z,16.80
2018-10-21T16:55:47.717Z,16.37
2018-10-21T16:58:28.458Z,16.57
2018-10-21T17:01:06.530Z,16.97
2018-10-21T17:03:41.586Z,16.00
2018-10-21T17:06:19.406Z,16.40
2018-10-21T17:09:00.585Z,16.60
2018-10-21T17:11:38.020Z,16.67
2018-10-21T17:14:15.084Z,16.87
2018-10-21T17:16:53.689Z,17.17
2018-10-21T17:19:33.695Z,17.83
2018-10-21T17:22:12.027Z,19.97
2018-10-21T17:24:48.292Z,19.03
2018-10-21T17:27:24.731Z,19.67
2018-10-21T17:30:00.107Z,20.20
2018-10-21T17:32:36.625Z,20.77
2018-10-21T17:35:13.033Z,21.33
2018-10-21T17:37:48.861Z,20.33
2018-10-21T17:40:25.383Z,19.53
2018-10-21T17:43:02.979Z,20.37
2018-10-21T17:45:38.265Z,20.47
2018-10-21T17:48:14.723Z,21.93
2018-10-21T17:50:54.716Z,20.70
2018-10-21T17:53:39.972Z,21.27
2018-10-21T17:56:15.845Z,21.37
2018-10-21T17:58:54.359Z,22.63
2018-10-21T18:01:33.690Z,22.67
2018-10-21T18:04:10.376Z,22.43
2018-10-21T18:06:48.531Z,20.37
2018-10-21T18:09:23.678Z,20.80
2018-10-21T18:11:59.619Z,21.03
2018-10-21T18:14:36.237Z,22.00
2018-10-21T18:17:12.227Z,22.17
2018-10-21T18:19:51.424Z,23.83
2018-10-21T18:22:31.270Z,21.23
2018-10-21T18:25:09.699Z,23.87
2018-10-21T18:27:46.426Z,21.27
2018-10-21T18:30:27.848Z,21.23
2018-10-21T18:33:05.692Z,19.43
2018-10-21T18:35:42.440Z,22.53
2018-10-21T18:38:17.813Z,21.07
2018-10-21T18:40:54.132Z,20.40
2018-10-21T18:43:30.120Z,22.30
2018-10-21T18:46:06.528Z,21.33
2018-10-21T18:48:43.744Z,21.93
2018-10-21T18:51:20.567Z,21.57
2018-10-21T18:53:57.176Z,21.00
2018-10-21T18:56:33.701Z,21.43
2018-10-21T18:59:10.182Z,21.60
2018-10-21T19:01:47.670Z,23.70
2018-10-21T19:04:24.050Z,21.30
2018-10-21T19:07:10.013Z,22.07
2018-10-21T19:09:46.900Z,22.13
2018-10-21T19:12:32.599Z,22.50
2018-10-21T19:15:10.770Z,21.30
2018-10-21T19:17:49.282Z,21.73
2018-10-21T19:20:34.313Z,22.50
2018-10-21T19:23:10.112Z,22.53
2018-10-21T19:25:46.285Z,23.00
2018-10-21T19:28:23.390Z,22.87
2018-10-21T19:31:01.326Z,21.57
2018-10-21T19:33:37.265Z,22.93
2018-10-21T19:36:13.856Z,22.70
2018-10-21T19:38:50.101Z,20.40
2018-10-21T19:41:27.286Z,21.33
2018-10-21T19:44:03.961Z,21.23
2018-10-21T19:46:40.123Z,21.53
2018-10-21T19:49:16.649Z,20.43
2018-10-21T19:53:04.115Z,20.70
2018-10-21T19:55:39.923Z,20.87
2018-10-21T19:58:21.637Z,21.87
2018-10-21T20:01:00.973Z,20.77
2018-10-21T20:03:36.531Z,20.63
2018-10-21T20:06:14.046Z,21.70
2018-10-21T20:08:57.397Z,22.20
2018-10-21T20:11:33.917Z,20.77
2018-10-21T20:14:09.189Z,21.50
2018-10-21T20:16:46.704Z,21.40
2018-10-21T20:19:29.517Z,22.00
2018-10-21T20:22:07.666Z,22.83
2018-10-21T20:24:44.131Z,22.33
2018-10-21T20:27:23.806Z,24.30
2018-10-21T20:29:59.250Z,21.27
2018-10-21T20:32:36.467Z,21.97
2018-10-21T20:35:13.277Z,22.40
2018-10-21T20:37:49.223Z,20.30
2018-10-21T20:40:24.915Z,23.20
2018-10-21T20:43:02.339Z,22.30
2018-10-21T20:45:38.262Z,22.80
2018-10-21T20:48:20.111Z,23.90
2018-10-21T20:50:57.352Z,22.27
2018-10-21T20:53:37.944Z,23.40
2018-10-21T20:56:13.729Z,21.57
2018-10-21T20:58:49.232Z,23.73
2018-10-21T21:01:26.172Z,22.60
2018-10-21T21:04:03.218Z,22.63
2018-10-21T21:06:42.598Z,23.10
2018-10-21T21:09:18.613Z,24.50
2018-10-21T21:12:00.447Z,23.40
2018-10-21T21:14:36.759Z,22.67
2018-10-21T21:17:14.012Z,23.83
2018-10-21T21:19:51.148Z,23.27
2018-10-21T21:22:28.671Z,22.37
2018-10-21T21:25:05.517Z,23.93
2018-10-21T21:27:41.362Z,23.10
2018-10-21T21:30:17.259Z,23.27
2018-10-21T21:32:53.759Z,22.90
2018-10-21T21:35:29.582Z,21.93
2018-10-21T21:38:05.588Z,22.63
2018-10-21T21:40:41.659Z,22.80
2018-10-21T21:43:17.767Z,23.77
2018-10-21T21:45:52.981Z,23.10
2018-10-21T21:48:28.714Z,23.63
2018-10-21T21:51:06.165Z,22.77
2018-10-21T21:53:42.674Z,22.50
2018-10-21T21:56:17.770Z,22.40
2018-10-21T21:58:54.252Z,22.30
2018-10-21T22:01:31.525Z,22.77
2018-10-21T22:04:13.171Z,21.83
2018-10-21T22:06:50.397Z,23.10
2018-10-21T22:09:26.776Z,23.73
2018-10-21T22:12:07.549Z,24.73
2018-10-21T22:14:50.846Z,22.70
2018-10-21T22:17:29.037Z,22.63
2018-10-21T22:20:05.962Z,22.97
2018-10-21T22:22:47.423Z,23.17
2018-10-21T22:25:27.079Z,22.67
2018-10-21T22:28:03.586Z,23.63
2018-10-21T22:30:39.713Z,22.17
2018-10-21T22:33:20.425Z,24.40
2018-10-21T22:35:56.309Z,23.17
2018-10-21T22:38:32.447Z,23.13
2018-10-21T22:41:08.659Z,23.00
2018-10-21T22:43:45.190Z,23.07
2018-10-21T22:46:20.697Z,24.90
2018-10-21T22:49:01.614Z,24.80
2018-10-21T22:51:37.684Z,23.33
2018-10-21T22:54:15.131Z,23.77
2018-10-21T22:56:50.396Z,24.90
2018-10-21T22:59:25.861Z,24.60
2018-10-21T23:02:05.215Z,23.80
2018-10-21T23:04:40.373Z,25.97
2018-10-21T23:07:22.519Z,25.10
2018-10-21T23:09:59.379Z,26.20
2018-10-21T23:12:36.566Z,23.90
2018-10-21T23:15:13.961Z,23.37
2018-10-21T23:17:51.531Z,24.23
2018-10-21T23:20:26.749Z,24.47
2018-10-21T23:23:08.586Z,23.67
2018-10-21T23:25:53.073Z,23.80
2018-10-21T23:28:29.159Z,25.20
2018-10-21T23:31:05.714Z,22.50
2018-10-21T23:33:44.813Z,22.87
2018-10-21T23:36:19.937Z,25.03
2018-10-21T23:39:04.306Z,23.53
2018-10-21T23:41:41.498Z,24.80
2018-10-21T23:44:18.022Z,25.73
2018-10-21T23:46:58.269Z,24.73
2018-10-21T23:49:37.644Z,24.63
2018-10-21T23:52:14.123Z,24.00
2018-10-21T23:55:01.005Z,26.10
2018-10-21T23:57:41.078Z,24.87
